createdAt,value
2018-11-27T00:00:25.858Z,85.26
2018-11-27T00:01:25.847Z,85.05
2018-11-27T00:02:25.836Z,85.05
2018-11-27T00:03:25.822Z,85.36
2018-11-27T00:04:25.833Z,85.16
2018-11-27T00:05:25.801Z,85.05
2018-11-27T00:06:25.808Z,84.99
2018-11-27T00:07:25.779Z,85.41
2018-11-27T00:08:25.767Z,85.93
2018-11-27T00:09:25.762Z,85.78
2018-11-27T00:10:25.747Z,86.19
2018-11-27T00:11:25.738Z,85.47
2018-11-27T00:12:25.744Z,85.05
2018-11-27T00:13:25.714Z,84.95
2018-11-27T00:14:25.703Z,85.05
2018-11-27T00:15:25.700Z,85.30
2018-11-27T00:16:25.683Z,84.43
2018-11-27T00:17:25.677Z,85.05
2018-11-27T00:18:25.676Z,84.78
2018-11-27T00:19:25.650Z,84.64
2018-11-27T00:20:25.640Z,84.99
2018-11-27T00:21:25.630Z,84.74
2018-11-27T00:22:25.651Z,84.95
2018-11-27T00:23:25.608Z,84.74
2018-11-27T00:24:25.599Z,84.64
2018-11-27T00:25:25.586Z,84.84
2018-11-27T00:26:25.573Z,84.64
2018-11-27T00:27:25.561Z,85.05
2018-11-27T00:28:25.564Z,84.95
2018-11-27T00:29:25.540Z,85.26
2018-11-27T00:30:25.531Z,84.84
2018-11-27T00:31:25.520Z,84.89
2018-11-27T00:32:25.506Z,84.84
2018-11-27T00:33:25.515Z,85.47
2018-11-27T00:34:25.485Z,85.30
2018-11-27T00:35:25.474Z,85.26
2018-11-27T00:36:25.466Z,84.84
2018-11-27T00:37:25.455Z,85.16
2018-11-27T00:38:25.459Z,84.84
2018-11-27T00:39:25.430Z,84.84
2018-11-27T00:40:25.419Z,84.68
2018-11-27T00:41:25.409Z,84.95
2018-11-27T00:42:25.400Z,84.99
2018-11-27T00:43:25.619Z,84.95
2018-11-27T00:44:25.379Z,84.84
2018-11-27T00:45:25.366Z,85.16
2018-11-27T00:46:25.355Z,84.74
2018-11-27T00:47:25.347Z,84.89
2018-11-27T00:48:25.351Z,85.16
2018-11-27T00:49:25.360Z,84.78
2018-11-27T00:50:25.314Z,84.84
2018-11-27T00:51:25.301Z,84.47
2018-11-27T00:52:25.291Z,84.22
2018-11-27T00:53:25.278Z,84.22
2018-11-27T00:54:25.271Z,84.47
2018-11-27T00:55:25.301Z,84.43
2018-11-27T00:56:25.247Z,84.64
2018-11-27T00:57:25.236Z,84.58
2018-11-27T00:58:25.229Z,84.95
2018-11-27T00:59:25.213Z,84.58
2018-11-27T01:00:25.205Z,85.05
2018-11-27T01:01:25.212Z,84.99
2018-11-27T01:02:25.180Z,84.43
2018-11-27T01:03:25.175Z,85.05
2018-11-27T01:04:25.163Z,85.10
2018-11-27T01:05:25.160Z,85.05
2018-11-27T01:06:25.139Z,84.78
2018-11-27T01:07:25.172Z,84.78
2018-11-27T01:08:25.117Z,84.99
2018-11-27T01:09:25.108Z,84.64
2018-11-27T01:10:25.096Z,85.05
2018-11-27T01:11:25.082Z,84.78
2018-11-27T01:12:25.072Z,84.99
2018-11-27T01:13:25.078Z,84.64
2018-11-27T01:14:25.054Z,84.74
2018-11-27T01:15:25.042Z,84.78
2018-11-27T01:16:25.062Z,84.74
2018-11-27T01:17:25.018Z,84.89
2018-11-27T01:18:25.009Z,84.89
2018-11-27T01:19:24.998Z,84.78
2018-11-27T01:20:24.985Z,84.99
2018-11-27T01:21:24.977Z,84.68
2018-11-27T01:22:24.980Z,84.47
2018-11-27T01:23:24.978Z,84.47
2018-11-27T01:24:24.945Z,85.20
2018-11-27T01:25:24.932Z,84.99
2018-11-27T01:26:24.941Z,85.61
2018-11-27T01:27:24.910Z,85.05
2018-11-27T01:28:24.899Z,85.05
2018-11-27T01:29:24.890Z,84.64
2018-11-27T01:30:24.883Z,85.30
2018-11-27T01:31:24.867Z,84.53
2018-11-27T01:32:24.870Z,84.64
2018-11-27T01:33:24.844Z,84.53
2018-11-27T01:34:24.833Z,83.91
2018-11-27T01:35:24.826Z,84.16
2018-11-27T01:36:24.814Z,84.84
2018-11-27T01:37:24.819Z,85.05
2018-11-27T01:38:24.790Z,85.20
2018-11-27T01:39:24.780Z,85.05
2018-11-27T01:40:24.771Z,84.53
2018-11-27T01:41:24.762Z,84.64
2018-11-27T01:42:24.761Z,84.47
2018-11-27T01:43:24.765Z,84.16
2018-11-27T01:44:24.725Z,84.12
2018-11-27T01:45:24.720Z,84.37
2018-11-27T01:46:24.706Z,84.01
2018-11-27T01:47:24.693Z,84.33
2018-11-27T01:48:24.685Z,84.22
2018-11-27T01:49:24.685Z,83.91
2018-11-27T01:50:24.668Z,84.16
2018-11-27T01:51:24.654Z,84.37
2018-11-27T01:52:24.642Z,84.58
2018-11-27T01:53:24.643Z,84.37
2018-11-27T01:54:24.618Z,84.37
2018-11-27T01:55:24.609Z,84.68
2018-11-27T01:56:24.594Z,84.47
2018-11-27T01:57:24.587Z,84.27
2018-11-27T01:58:24.587Z,84.27
2018-11-27T01:59:24.579Z,84.27
2018-11-27T02:00:24.554Z,83.53
2018-11-27T02:01:24.540Z,84.16
2018-11-27T02:02:24.533Z,83.84
2018-11-27T02:03:24.534Z,84.37
2018-11-27T02:04:24.511Z,84.27
2018-11-27T02:05:24.519Z,83.74
2018-11-27T02:06:24.489Z,83.43
2018-11-27T02:07:24.476Z,83.22
2018-11-27T02:08:24.469Z,83.01
2018-11-27T02:09:24.455Z,83.64
2018-11-27T02:10:24.444Z,83.53
2018-11-27T02:11:24.449Z,83.53
2018-11-27T02:12:24.425Z,83.01
2018-11-27T02:13:24.413Z,82.91
2018-11-27T02:14:24.402Z,83.33
2018-11-27T02:15:24.393Z,83.43
2018-11-27T02:16:24.393Z,83.01
2018-11-27T02:17:24.366Z,83.12
2018-11-27T02:18:24.358Z,83.74
2018-11-27T02:19:24.347Z,84.16
2018-11-27T02:20:24.350Z,83.33
2018-11-27T02:21:24.327Z,83.53
2018-11-27T02:22:24.314Z,83.12
2018-11-27T02:23:24.306Z,83.12
2018-11-27T02:24:24.293Z,82.91
2018-11-27T02:25:24.328Z,82.81
2018-11-27T02:26:24.273Z,83.43
2018-11-27T02:27:24.260Z,83.43
2018-11-27T02:28:24.248Z,84.58
2018-11-27T02:29:24.238Z,84.68
2018-11-27T02:30:24.293Z,83.84
2018-11-27T02:31:24.228Z,83.74
2018-11-27T02:32:24.216Z,83.53
2018-11-27T02:33:24.198Z,84.27
2018-11-27T02:34:24.184Z,84.37
2018-11-27T02:35:24.175Z,84.27
2018-11-27T02:36:24.204Z,83.84
2018-11-27T02:37:24.155Z,83.43
2018-11-27T02:38:24.146Z,83.74
2018-11-27T02:39:24.132Z,83.74
2018-11-27T02:40:24.125Z,84.27
2018-11-27T02:41:24.111Z,84.27
2018-11-27T02:42:24.114Z,84.37
2018-11-27T02:43:24.087Z,84.58
2018-11-27T02:44:24.078Z,84.05
2018-11-27T02:45:24.067Z,84.68
2018-11-27T02:46:24.057Z,84.37
2018-11-27T02:47:24.080Z,84.37
2018-11-27T02:48:24.032Z,84.05
2018-11-27T02:49:24.020Z,84.68
2018-11-27T02:50:24.011Z,84.05
2018-11-27T02:51:24.002Z,83.95
2018-11-27T02:52:23.989Z,84.05
2018-11-27T02:53:24.011Z,84.89
2018-11-27T02:54:23.983Z,84.89
2018-11-27T02:55:24.931Z,84.58
2018-11-27T02:56:23.946Z,85.20
2018-11-27T02:57:23.936Z,84.47
2018-11-27T02:58:23.926Z,84.05
2018-11-27T02:59:23.930Z,84.47
2018-11-27T03:00:23.904Z,85.30
2018-11-27T03:01:23.891Z,84.68
2018-11-27T03:02:23.884Z,84.16
2018-11-27T03:03:23.888Z,84.58
2018-11-27T03:04:23.859Z,85.10
2018-11-27T03:05:23.846Z,84.72
2018-11-27T03:06:23.854Z,84.47
2018-11-27T03:07:23.827Z,85.03
2018-11-27T03:08:23.864Z,85.13
2018-11-27T03:09:23.807Z,84.92
2018-11-27T03:10:23.794Z,85.13
2018-11-27T03:11:23.785Z,84.89
2018-11-27T03:12:23.773Z,84.99
2018-11-27T03:13:23.763Z,85.10
2018-11-27T03:14:23.764Z,85.20
2018-11-27T03:15:23.741Z,84.99
2018-11-27T03:16:23.731Z,84.47
2018-11-27T03:17:23.719Z,84.72
2018-11-27T03:18:23.709Z,84.58
2018-11-27T03:19:23.714Z,85.20
2018-11-27T03:20:23.700Z,84.89
2018-11-27T03:21:23.689Z,85.30
2018-11-27T03:22:23.667Z,84.89
2018-11-27T03:23:23.659Z,85.55
2018-11-27T03:24:23.644Z,84.78
2018-11-27T03:25:23.648Z,85.10
2018-11-27T03:26:23.622Z,85.13
2018-11-27T03:27:23.610Z,85.10
2018-11-27T03:28:23.601Z,85.10
2018-11-27T03:29:23.593Z,84.99
2018-11-27T03:30:23.602Z,84.78
2018-11-27T03:31:23.570Z,85.10
2018-11-27T03:32:23.559Z,85.03
2018-11-27T03:33:23.548Z,85.41
2018-11-27T03:34:23.534Z,84.92
2018-11-27T03:35:23.536Z,84.89
2018-11-27T03:36:23.519Z,84.58
2018-11-27T03:37:23.510Z,84.92
2018-11-27T03:38:23.492Z,84.68
2018-11-27T03:39:23.493Z,85.13
2018-11-27T03:40:23.471Z,84.78
2018-11-27T03:41:23.471Z,84.68
2018-11-27T03:42:23.446Z,84.58
2018-11-27T03:43:23.435Z,84.47
2018-11-27T03:44:23.433Z,85.30
2018-11-27T03:45:23.416Z,85.20
2018-11-27T03:46:23.417Z,85.44
2018-11-27T03:47:23.395Z,84.61
2018-11-27T03:48:23.380Z,84.78
2018-11-27T03:49:23.370Z,84.78
2018-11-27T03:50:23.363Z,84.41
2018-11-27T03:51:23.386Z,84.72
2018-11-27T03:52:23.340Z,83.74
2018-11-27T03:53:23.330Z,84.47
2018-11-27T03:54:23.319Z,84.27
2018-11-27T03:55:23.308Z,84.61
2018-11-27T03:56:23.296Z,83.84
2018-11-27T03:57:23.299Z,83.53
2018-11-27T03:58:23.274Z,83.78
2018-11-27T03:59:23.264Z,84.30
2018-11-27T04:00:23.260Z,84.47
2018-11-27T04:01:23.243Z,84.78
2018-11-27T04:02:23.246Z,84.20
2018-11-27T04:03:23.220Z,84.20
2018-11-27T04:04:23.210Z,84.05
2018-11-27T04:05:23.199Z,84.58
2018-11-27T04:06:23.189Z,84.30
2018-11-27T04:07:23.209Z,84.68
2018-11-27T04:08:23.171Z,84.30
2018-11-27T04:09:23.154Z,84.30
2018-11-27T04:10:23.143Z,83.89
2018-11-27T04:11:23.135Z,83.68
2018-11-27T04:12:23.124Z,83.78
2018-11-27T04:13:23.127Z,82.84
2018-11-27T04:14:23.111Z,82.95
2018-11-27T04:15:23.090Z,83.68
2018-11-27T04:16:23.081Z,83.58
2018-11-27T04:17:23.067Z,83.37
2018-11-27T04:18:23.076Z,83.16
2018-11-27T04:19:23.072Z,83.12
2018-11-27T04:20:23.039Z,82.84
2018-11-27T04:21:23.024Z,82.84
2018-11-27T04:22:23.016Z,82.64
2018-11-27T04:23:23.010Z,82.74
2018-11-27T04:24:22.992Z,82.64
2018-11-27T04:25:23.006Z,83.16
2018-11-27T04:26:22.972Z,82.95
2018-11-27T04:27:22.959Z,82.95
2018-11-27T04:28:22.952Z,82.53
2018-11-27T04:29:22.938Z,83.37
2018-11-27T04:30:22.929Z,83.68
2018-11-27T04:31:22.927Z,83.26
2018-11-27T04:32:22.907Z,83.26
2018-11-27T04:33:22.897Z,82.74
2018-11-27T04:34:22.886Z,83.26
2018-11-27T04:35:22.889Z,83.64
2018-11-27T04:36:22.866Z,84.16
2018-11-27T04:37:22.857Z,83.68
2018-11-27T04:38:22.839Z,83.16
2018-11-27T04:39:22.829Z,83.68
2018-11-27T04:40:22.843Z,83.58
2018-11-27T04:41:22.807Z,83.89
2018-11-27T04:42:22.796Z,83.78
2018-11-27T04:43:22.787Z,84.41
2018-11-27T04:44:22.775Z,83.89
2018-11-27T04:45:22.767Z,83.68
2018-11-27T04:46:22.768Z,83.95
2018-11-27T04:47:22.744Z,83.12
2018-11-27T04:48:22.735Z,83.64
2018-11-27T04:49:22.722Z,83.33
2018-11-27T04:50:22.710Z,83.53
2018-11-27T04:51:22.722Z,84.16
2018-11-27T04:52:22.691Z,84.27
2018-11-27T04:53:22.680Z,83.99
2018-11-27T04:54:22.671Z,84.16
2018-11-27T04:55:22.663Z,83.58
2018-11-27T04:56:22.647Z,83.68
2018-11-27T04:57:22.656Z,83.78
2018-11-27T04:58:22.625Z,83.68
2018-11-27T04:59:22.618Z,84.20
2018-11-27T05:00:22.604Z,83.95
2018-11-27T05:01:22.590Z,83.33
2018-11-27T05:02:22.582Z,82.95
2018-11-27T05:03:22.602Z,84.16
2018-11-27T05:04:22.557Z,84.09
2018-11-27T05:05:22.547Z,83.68
2018-11-27T05:06:22.539Z,82.81
2018-11-27T05:07:22.529Z,82.53
2018-11-27T05:08:22.515Z,83.12
2018-11-27T05:09:22.527Z,84.41
2018-11-27T05:10:22.505Z,84.78
2018-11-27T05:11:22.483Z,84.30
2018-11-27T05:12:22.475Z,83.74
2018-11-27T05:13:22.463Z,83.26
2018-11-27T05:14:22.450Z,82.64
2018-11-27T05:15:22.457Z,82.53
2018-11-27T05:16:22.427Z,82.01
2018-11-27T05:17:22.453Z,82.01
2018-11-27T05:18:22.411Z,82.64
2018-11-27T05:19:22.398Z,82.64
2018-11-27T05:20:22.389Z,82.43
2018-11-27T05:21:22.375Z,82.43
2018-11-27T05:22:22.388Z,82.84
2018-11-27T05:23:22.369Z,82.60
2018-11-27T05:24:22.344Z,82.53
2018-11-27T05:25:22.333Z,82.43
2018-11-27T05:26:22.320Z,83.05
2018-11-27T05:27:22.309Z,83.05
2018-11-27T05:28:22.326Z,83.33
2018-11-27T05:29:22.287Z,83.26
2018-11-27T05:30:22.279Z,83.16
2018-11-27T05:31:22.266Z,82.74
2018-11-27T05:32:22.255Z,82.64
2018-11-27T05:33:22.247Z,82.43
2018-11-27T05:34:22.247Z,82.91
2018-11-27T05:35:22.222Z,82.70
2018-11-27T05:36:22.214Z,82.39
2018-11-27T05:37:22.201Z,82.53
2018-11-27T05:38:22.204Z,81.81
2018-11-27T05:39:22.179Z,81.70
2018-11-27T05:40:22.175Z,82.01
2018-11-27T05:41:22.158Z,81.91
2018-11-27T05:42:22.162Z,82.22
2018-11-27T05:43:22.136Z,82.43
2018-11-27T05:44:22.127Z,82.64
2018-11-27T05:45:22.112Z,82.53
2018-11-27T05:46:22.118Z,82.32
2018-11-27T05:47:22.092Z,82.32
2018-11-27T05:48:22.083Z,82.29
2018-11-27T05:49:22.069Z,81.81
2018-11-27T05:50:22.071Z,82.12
2018-11-27T05:51:22.051Z,82.32
2018-11-27T05:52:22.037Z,82.22
2018-11-27T05:53:22.031Z,82.12
2018-11-27T05:54:22.016Z,82.12
2018-11-27T05:55:22.021Z,82.60
2018-11-27T05:56:21.997Z,82.64
2018-11-27T05:57:21.983Z,82.18
2018-11-27T05:58:21.971Z,82.08
2018-11-27T05:59:21.964Z,82.32
2018-11-27T06:00:21.975Z,82.32
2018-11-27T06:01:21.941Z,82.53
2018-11-27T06:02:21.930Z,82.12
2018-11-27T06:03:21.919Z,82.64
2018-11-27T06:04:21.921Z,82.32
2018-11-27T06:05:21.894Z,82.22
2018-11-27T06:06:21.919Z,82.22
2018-11-27T06:07:21.884Z,81.70
2018-11-27T06:08:21.883Z,82.32
2018-11-27T06:09:21.871Z,82.43
2018-11-27T06:10:21.842Z,82.64
2018-11-27T06:11:21.843Z,82.43
2018-11-27T06:12:21.821Z,82.29
2018-11-27T06:13:21.808Z,81.81
2018-11-27T06:14:21.834Z,81.81
2018-11-27T06:15:21.794Z,81.91
2018-11-27T06:16:21.778Z,81.87
2018-11-27T06:17:21.767Z,81.87
2018-11-27T06:18:21.755Z,82.53
2018-11-27T06:19:21.742Z,81.81
2018-11-27T06:20:21.742Z,80.98
2018-11-27T06:21:21.734Z,80.66
2018-11-27T06:22:21.711Z,81.29
2018-11-27T06:23:21.699Z,81.29
2018-11-27T06:24:21.691Z,81.91
2018-11-27T06:25:21.690Z,81.81
2018-11-27T06:26:21.681Z,82.32
2018-11-27T06:27:21.656Z,82.39
2018-11-27T06:28:21.645Z,81.81
2018-11-27T06:29:21.636Z,82.01
2018-11-27T06:30:21.623Z,82.12
2018-11-27T06:31:21.646Z,81.91
2018-11-27T06:32:21.605Z,81.81
2018-11-27T06:33:21.592Z,80.98
2018-11-27T06:34:21.583Z,81.18
2018-11-27T06:35:21.571Z,81.81
2018-11-27T06:36:21.561Z,82.22
2018-11-27T06:37:21.562Z,82.12
2018-11-27T06:38:21.539Z,82.01
2018-11-27T06:39:21.529Z,82.22
2018-11-27T06:40:21.518Z,82.12
2018-11-27T06:41:21.520Z,82.43
2018-11-27T06:42:21.495Z,82.12
2018-11-27T06:43:21.485Z,82.43
2018-11-27T06:44:21.478Z,82.64
2018-11-27T06:45:21.489Z,83.05
2018-11-27T06:46:21.461Z,83.05
2018-11-27T06:47:21.442Z,83.05
2018-11-27T06:48:21.431Z,82.95
2018-11-27T06:49:21.420Z,83.05
2018-11-27T06:50:21.406Z,82.74
2018-11-27T06:51:21.409Z,82.64
2018-11-27T06:52:21.388Z,83.05
2018-11-27T06:53:21.373Z,82.99
2018-11-27T06:54:21.366Z,83.37
2018-11-27T06:55:21.359Z,83.51
2018-11-27T06:56:21.355Z,83.37
2018-11-27T06:57:21.704Z,84.23
2018-11-27T06:58:21.322Z,83.99
2018-11-27T06:59:21.309Z,84.75
2018-11-27T07:00:21.302Z,84.61
2018-11-27T07:01:21.300Z,85.17
2018-11-27T07:02:21.287Z,84.86
2018-11-27T07:03:21.266Z,85.28
2018-11-27T07:04:21.257Z,85.44
2018-11-27T07:05:21.246Z,85.80
2018-11-27T07:06:21.243Z,86.07
2018-11-27T07:07:21.226Z,85.96
2018-11-27T07:08:21.212Z,86.21
2018-11-27T07:09:21.214Z,86.17
2018-11-27T07:10:21.190Z,85.96
2018-11-27T07:11:21.183Z,85.75
2018-11-27T07:12:21.189Z,85.65
2018-11-27T07:13:21.164Z,86.07
2018-11-27T07:14:21.151Z,85.90
2018-11-27T07:15:21.166Z,86.00
2018-11-27T07:16:21.126Z,86.11
2018-11-27T07:17:21.114Z,86.00
2018-11-27T07:18:21.124Z,85.90
2018-11-27T07:19:21.097Z,86.21
2018-11-27T07:20:21.084Z,86.42
2018-11-27T07:21:21.074Z,86.32
2018-11-27T07:22:21.069Z,86.32
2018-11-27T07:23:21.059Z,85.80
2018-11-27T07:24:21.041Z,86.00
2018-11-27T07:25:21.027Z,86.00
2018-11-27T07:26:21.018Z,85.90
2018-11-27T07:27:21.008Z,85.17
2018-11-27T07:28:21.032Z,85.06
2018-11-27T07:29:20.986Z,85.38
2018-11-27T07:30:20.977Z,85.34
2018-11-27T07:31:20.964Z,85.80
2018-11-27T07:32:20.956Z,86.11
2018-11-27T07:33:20.944Z,86.11
2018-11-27T07:34:20.946Z,86.42
2018-11-27T07:35:20.928Z,86.32
2018-11-27T07:36:20.909Z,86.32
2018-11-27T07:37:20.899Z,85.17
2018-11-27T07:38:20.890Z,85.49
2018-11-27T07:39:20.896Z,86.42
2018-11-27T07:40:20.869Z,86.11
2018-11-27T07:41:20.855Z,85.90
2018-11-27T07:42:20.847Z,85.59
2018-11-27T07:43:20.835Z,85.90
2018-11-27T07:44:20.838Z,86.32
2018-11-27T07:45:20.845Z,85.49
2018-11-27T07:46:20.802Z,86.42
2018-11-27T07:47:20.793Z,85.80
2018-11-27T07:48:20.779Z,85.38
2018-11-27T07:49:20.772Z,85.49
2018-11-27T07:50:20.760Z,85.69
2018-11-27T07:51:20.788Z,85.59
2018-11-27T07:52:20.739Z,85.38
2018-11-27T07:53:20.727Z,85.49
2018-11-27T07:54:20.720Z,86.42
2018-11-27T07:55:20.707Z,86.11
2018-11-27T07:56:20.696Z,85.69
2018-11-27T07:57:20.696Z,85.69
2018-11-27T07:58:20.675Z,86.32
2018-11-27T07:59:20.659Z,85.69
2018-11-27T08:00:20.662Z,86.52
2018-11-27T08:01:20.663Z,85.96
2018-11-27T08:02:20.629Z,86.11
2018-11-27T08:03:20.619Z,85.17
2018-11-27T08:04:20.609Z,85.28
2018-11-27T08:05:20.598Z,85.17
2018-11-27T08:06:20.601Z,85.28
2018-11-27T08:07:21.313Z,85.17
2018-11-27T08:08:20.565Z,85.17
2018-11-27T08:09:20.553Z,84.44
2018-11-27T08:10:20.543Z,84.55
2018-11-27T08:11:20.548Z,84.86
2018-11-27T08:12:20.520Z,84.96
2018-11-27T08:13:20.511Z,84.55
2018-11-27T08:14:20.498Z,85.28
2018-11-27T08:15:20.490Z,84.96
2018-11-27T08:16:20.513Z,85.28
2018-11-27T08:17:20.466Z,84.72
2018-11-27T08:18:20.642Z,84.86
2018-11-27T08:19:20.445Z,85.03
2018-11-27T08:20:20.436Z,84.96
2018-11-27T08:21:20.426Z,85.24
2018-11-27T08:22:20.428Z,84.72
2018-11-27T08:23:20.413Z,84.55
2018-11-27T08:24:20.391Z,84.41
2018-11-27T08:25:20.381Z,84.86
2018-11-27T08:26:20.373Z,84.82
2018-11-27T08:27:20.357Z,84.41
2018-11-27T08:28:20.364Z,84.09
2018-11-27T08:29:20.337Z,84.41
2018-11-27T08:30:20.324Z,84.20
2018-11-27T08:31:20.315Z,84.82
2018-11-27T08:32:20.319Z,84.61
2018-11-27T08:33:20.304Z,84.61
2018-11-27T08:34:20.282Z,84.51
2018-11-27T08:35:20.285Z,84.20
2018-11-27T08:36:20.263Z,84.61
2018-11-27T08:37:20.250Z,84.09
2018-11-27T08:38:20.242Z,84.20
2018-11-27T08:39:20.265Z,84.20
2018-11-27T08:40:20.220Z,83.47
2018-11-27T08:41:20.214Z,83.58
2018-11-27T08:42:20.201Z,83.68
2018-11-27T08:43:20.185Z,83.78
2018-11-27T08:44:20.174Z,83.37
2018-11-27T08:45:20.180Z,83.16
2018-11-27T08:46:20.153Z,83.58
2018-11-27T08:47:20.144Z,83.74
2018-11-27T08:48:20.147Z,83.78
2018-11-27T08:49:20.119Z,84.30
2018-11-27T08:50:20.115Z,84.30
2018-11-27T08:51:20.101Z,83.53
2018-11-27T08:52:20.127Z,84.30
2018-11-27T08:53:20.078Z,84.27
2018-11-27T08:54:20.067Z,84.61
2018-11-27T08:55:20.055Z,84.72
2018-11-27T08:56:20.047Z,84.30
2018-11-27T08:57:20.035Z,84.41
2018-11-27T08:58:20.046Z,82.60
2018-11-27T08:59:20.016Z,81.77
2018-11-27T09:00:20.004Z,80.25
2018-11-27T09:01:19.993Z,79.90
2018-11-27T09:02:20.013Z,79.69
2018-11-27T09:03:19.967Z,79.27
2018-11-27T09:04:19.961Z,78.96
2018-11-27T09:05:19.949Z,79.48
2018-11-27T09:06:19.938Z,78.44
2018-11-27T09:07:19.925Z,77.61
2018-11-27T09:08:19.926Z,78.65
2018-11-27T09:09:19.907Z,77.03
2018-11-27T09:10:19.895Z,77.20
2018-11-27T09:11:19.881Z,77.92
2018-11-27T09:12:19.871Z,77.72
2018-11-27T09:13:19.874Z,77.09
2018-11-27T09:14:19.849Z,77.03
2018-11-27T09:15:19.840Z,76.68
2018-11-27T09:16:19.828Z,76.82
2018-11-27T09:17:19.820Z,76.89
2018-11-27T09:18:19.831Z,76.29
2018-11-27T09:19:19.799Z,76.06
2018-11-27T09:20:20.911Z,75.78
2018-11-27T09:21:19.776Z,75.95
2018-11-27T09:22:19.766Z,75.57
2018-11-27T09:23:19.767Z,75.01
2018-11-27T09:24:19.796Z,75.98
2018-11-27T09:25:19.734Z,76.19
2018-11-27T09:26:19.718Z,76.89
2018-11-27T09:27:19.711Z,76.82
2018-11-27T09:28:19.710Z,76.72
2018-11-27T09:29:19.686Z,76.29
2018-11-27T09:30:19.674Z,75.95
2018-11-27T09:31:19.664Z,75.98
2018-11-27T09:32:19.656Z,76.51
2018-11-27T09:33:19.658Z,76.68
2018-11-27T09:34:19.632Z,76.89
2018-11-27T09:35:19.618Z,76.29
2018-11-27T09:36:19.611Z,76.16
2018-11-27T09:37:19.601Z,76.06
2018-11-27T09:38:19.603Z,76.06
2018-11-27T09:39:19.575Z,76.26
2018-11-27T09:40:19.567Z,76.57
2018-11-27T09:41:19.569Z,75.95
2018-11-27T09:42:19.547Z,76.37
2018-11-27T09:43:19.536Z,76.16
2018-11-27T09:44:19.522Z,75.85
2018-11-27T09:45:19.514Z,75.74
2018-11-27T09:46:19.516Z,75.22
2018-11-27T09:47:19.493Z,74.60
2018-11-27T09:48:19.485Z,73.84
2018-11-27T09:49:19.482Z,73.46
2018-11-27T09:50:19.457Z,73.87
2018-11-27T09:51:19.448Z,74.70
2018-11-27T09:52:19.464Z,74.49
2018-11-27T09:53:19.434Z,74.01
2018-11-27T09:54:19.418Z,74.11
2018-11-27T09:55:19.403Z,74.74
2018-11-27T09:56:19.392Z,75.15
2018-11-27T09:57:19.396Z,74.91
2018-11-27T09:58:19.373Z,75.43
2018-11-27T09:59:19.371Z,75.85
2018-11-27T10:00:19.364Z,76.06
2018-11-27T10:01:19.337Z,75.95
2018-11-27T10:02:19.329Z,76.57
2018-11-27T10:03:19.349Z,75.32
2018-11-27T10:04:19.304Z,74.98
2018-11-27T10:05:19.296Z,74.39
2018-11-27T10:06:19.281Z,74.18
2018-11-27T10:07:19.272Z,72.83
2018-11-27T10:08:19.263Z,73.04
2018-11-27T10:09:19.284Z,73.25
2018-11-27T10:10:19.239Z,73.77
2018-11-27T10:11:19.228Z,73.97
2018-11-27T10:12:19.216Z,73.25
2018-11-27T10:13:19.208Z,73.56
2018-11-27T10:14:19.198Z,73.66
2018-11-27T10:15:19.202Z,74.29
2018-11-27T10:16:19.175Z,75.22
2018-11-27T10:17:19.164Z,75.40
2018-11-27T10:18:19.153Z,75.71
2018-11-27T10:19:19.142Z,74.36
2018-11-27T10:20:19.140Z,73.74
2018-11-27T10:21:19.131Z,73.53
2018-11-27T10:22:19.111Z,73.84
2018-11-27T10:23:19.099Z,73.32
2018-11-27T10:24:19.089Z,73.22
2018-11-27T10:25:19.091Z,72.59
2018-11-27T10:26:19.067Z,73.32
2018-11-27T10:27:19.070Z,73.11
2018-11-27T10:28:19.044Z,71.55
2018-11-27T10:29:19.037Z,71.97
2018-11-27T10:30:19.604Z,70.83
2018-11-27T10:31:19.026Z,70.93
2018-11-27T10:32:19.000Z,70.83
2018-11-27T10:33:19.037Z,71.55
2018-11-27T10:34:18.977Z,72.07
2018-11-27T10:35:18.970Z,71.97
2018-11-27T10:36:18.973Z,72.59
2018-11-27T10:37:18.951Z,72.77
2018-11-27T10:38:18.936Z,72.56
2018-11-27T10:39:18.923Z,72.66
2018-11-27T10:40:18.917Z,71.52
2018-11-27T10:41:18.916Z,71.94
2018-11-27T10:42:18.890Z,72.04
2018-11-27T10:43:19.950Z,72.25
2018-11-27T10:44:18.868Z,72.11
2018-11-27T10:45:18.865Z,72.01
2018-11-27T10:46:18.861Z,71.08
2018-11-27T10:47:18.836Z,70.45
2018-11-27T10:48:18.840Z,70.66
2018-11-27T10:49:18.813Z,70.76
2018-11-27T10:50:18.802Z,71.18
2018-11-27T10:51:18.795Z,72.01
2018-11-27T10:52:18.796Z,70.56
2018-11-27T10:53:18.769Z,70.45
2018-11-27T10:54:18.759Z,70.04
2018-11-27T10:55:18.761Z,70.35
2018-11-27T10:56:18.735Z,71.08
2018-11-27T10:57:18.726Z,70.35
2018-11-27T10:58:18.716Z,70.17
2018-11-27T10:59:18.703Z,70.76
2018-11-27T11:00:18.711Z,72.14
2018-11-27T11:01:18.682Z,71.00
2018-11-27T11:02:18.671Z,72.14
2018-11-27T11:03:18.661Z,71.42
2018-11-27T11:04:18.651Z,71.83
2018-11-27T11:05:18.639Z,72.11
2018-11-27T11:06:18.659Z,72.32
2018-11-27T11:07:18.621Z,71.91
2018-11-27T11:08:18.608Z,70.87
2018-11-27T11:09:18.598Z,70.56
2018-11-27T11:10:18.586Z,70.97
2018-11-27T11:11:18.576Z,70.04
2018-11-27T11:12:18.579Z,70.76
2018-11-27T11:13:18.557Z,70.97
2018-11-27T11:14:18.553Z,70.45
2018-11-27T11:15:18.550Z,70.97
2018-11-27T11:16:18.527Z,71.91
2018-11-27T11:17:18.510Z,71.77
2018-11-27T11:18:18.497Z,70.94
2018-11-27T11:19:18.559Z,69.83
2018-11-27T11:20:18.478Z,70.45
2018-11-27T11:21:18.481Z,71.49
2018-11-27T11:22:18.458Z,70.83
2018-11-27T11:23:18.443Z,70.76
2018-11-27T11:24:18.433Z,70.66
2018-11-27T11:25:18.424Z,69.10
2018-11-27T11:26:18.420Z,70.04
2018-11-27T11:27:18.402Z,70.56
2018-11-27T11:28:18.390Z,72.22
2018-11-27T11:29:18.376Z,70.76
2018-11-27T11:30:18.381Z,70.45
2018-11-27T11:31:18.375Z,70.35
2018-11-27T11:32:18.348Z,71.04
2018-11-27T11:33:18.335Z,70.66
2018-11-27T11:34:18.327Z,69.93
2018-11-27T11:35:18.314Z,71.08
2018-11-27T11:36:18.315Z,70.87
2018-11-27T11:37:18.293Z,71.04
2018-11-27T11:38:18.283Z,70.62
2018-11-27T11:39:18.272Z,70.73
2018-11-27T11:40:18.263Z,69.93
2018-11-27T11:41:18.264Z,69.90
2018-11-27T11:42:18.272Z,69.42
2018-11-27T11:43:18.229Z,69.62
2018-11-27T11:44:18.217Z,68.59
2018-11-27T11:45:18.207Z,68.59
2018-11-27T11:46:18.196Z,69.52
2018-11-27T11:47:18.184Z,69.31
2018-11-27T11:48:18.184Z,69.62
2018-11-27T11:49:18.177Z,69.31
2018-11-27T11:50:18.152Z,69.62
2018-11-27T11:51:18.140Z,68.48
2018-11-27T11:52:18.132Z,69.31
2018-11-27T11:53:18.128Z,70.14
2018-11-27T11:54:18.110Z,69.52
2018-11-27T11:55:18.100Z,69.93
2018-11-27T11:56:18.085Z,68.90
2018-11-27T11:57:18.074Z,69.73
2018-11-27T11:58:18.084Z,69.21
2018-11-27T11:59:18.053Z,69.21
2018-11-27T12:00:18.043Z,69.38
2018-11-27T12:01:18.036Z,68.24
2018-11-27T12:02:18.020Z,69.59
2018-11-27T12:03:18.025Z,68.96
2018-11-27T12:04:18.000Z,70.10
2018-11-27T12:05:18.002Z,69.87
2018-11-27T12:06:17.998Z,68.31
2018-11-27T12:07:17.981Z,69.56
2018-11-27T12:08:17.956Z,69.87
2018-11-27T12:09:17.947Z,69.04
2018-11-27T12:10:17.934Z,68.80
2018-11-27T12:11:17.937Z,69.32
2018-11-27T12:12:17.912Z,69.21
2018-11-27T12:13:17.904Z,70.15
2018-11-27T12:14:17.893Z,70.04
2018-11-27T12:15:17.922Z,69.53
2018-11-27T12:16:17.869Z,69.63
2018-11-27T12:17:17.857Z,69.84
2018-11-27T12:18:17.847Z,70.15
2018-11-27T12:19:17.873Z,69.80
2018-11-27T12:20:17.828Z,70.15
2018-11-27T12:21:17.829Z,68.80
2018-11-27T12:22:17.806Z,68.49
2018-11-27T12:23:17.791Z,68.87
2018-11-27T12:24:17.780Z,69.80
2018-11-27T12:25:17.773Z,69.90
2018-11-27T12:26:17.796Z,69.39
2018-11-27T12:27:17.748Z,70.63
2018-11-27T12:28:17.737Z,69.39
2018-11-27T12:29:17.730Z,69.39
2018-11-27T12:30:17.716Z,69.08
2018-11-27T12:31:17.706Z,69.70
2018-11-27T12:32:17.729Z,69.39
2018-11-27T12:33:17.680Z,70.01
2018-11-27T12:34:17.676Z,70.01
2018-11-27T12:35:17.658Z,68.98
2018-11-27T12:36:17.647Z,68.15
2018-11-27T12:37:17.637Z,69.29
2018-11-27T12:38:17.637Z,70.11
2018-11-27T12:39:17.617Z,70.01
2018-11-27T12:40:17.607Z,69.60
2018-11-27T12:41:17.592Z,69.80
2018-11-27T12:42:17.594Z,70.01
2018-11-27T12:43:17.570Z,70.01
2018-11-27T12:44:17.586Z,69.70
2018-11-27T12:45:17.552Z,69.49
2018-11-27T12:46:17.548Z,69.39
2018-11-27T12:47:17.604Z,70.01
2018-11-27T12:48:17.524Z,69.80
2018-11-27T12:49:17.503Z,70.21
2018-11-27T12:50:17.494Z,69.80
2018-11-27T12:51:17.999Z,69.80
2018-11-27T12:52:17.488Z,68.77